Time;durP1;ratioP1;P1;durP2;ratioP2;P2;SDS_P1;SDS_P2;PMS_P1;PMS_P2;Temp;Humidity;BMP_temperature;BMP_pressure;BME280_temperature;BME280_humidity;BME280_pressure;Samples;Min_cycle;Max_cycle;Signal;HPM_P1;HPM_P2
2022/07/19 00:00:27;;;;;;;3.03;2.00;;;24.70;50.10;;;-142.21;53.52;112049.66;5112909;28;20235;-78
2022/07/19 00:02:55;;;;;;;5.77;1.90;;;24.60;49.80;;;-142.21;53.65;112049.66;5112906;28;20279;-79
2022/07/19 00:05:22;;;;;;;2.87;1.80;;;24.60;49.80;;;-142.21;54.93;112049.66;5112504;28;20722;-78
2022/07/19 00:07:49;;;;;;;2.93;2.07;;;24.60;50.20;;;-142.21;55.60;112049.66;5112895;28;20249;-78
2022/07/19 00:10:19;;;;;;;4.77;2.33;;;24.50;50.40;;;-142.21;55.66;112049.66;5111894;28;20265;-79
2022/07/19 00:12:48;;;;;;;4.40;2.00;;;24.50;50.50;;;-142.21;54.37;112049.66;5112491;28;20295;-79
2022/07/19 00:15:17;;;;;;;2.60;2.40;;;24.40;50.10;;;-142.21;53.54;112049.66;5094138;28;20211;-79
2022/07/19 00:17:49;;;;;;;3.33;1.83;;;24.40;49.90;;;-142.21;52.97;112049.66;5092838;28;20295;-78
2022/07/19 00:20:20;;;;;;;2.87;2.40;;;24.40;49.80;;;-142.21;53.29;112049.66;5091891;28;20275;-78
2022/07/19 00:22:47;;;;;;;4.97;2.10;;;24.40;49.90;;;-142.21;53.87;112049.66;5092058;28;20227;-79
2022/07/19 00:25:15;;;;;;;2.20;2.00;;;24.40;50.10;;;-142.21;55.08;112049.66;5091516;28;20199;-78
2022/07/19 00:27:42;;;;;;;3.83;1.93;;;24.40;50.40;;;-142.21;55.57;112049.66;5092278;28;20735;-78
2022/07/19 00:30:14;;;;;;;6.50;2.10;;;24.30;50.50;;;-142.21;55.98;112049.66;5091953;28;20234;-78
2022/07/19 00:32:42;;;;;;;3.87;2.17;;;24.20;50.70;;;-142.21;56.50;112049.66;5074437;28;20204;-78
2022/07/19 00:35:10;;;;;;;2.10;1.77;;;24.20;50.80;;;-142.21;56.88;112049.66;5107697;28;20199;-78
2022/07/19 00:37:37;;;;;;;2.73;1.80;;;24.10;50.90;;;-142.21;56.92;112049.66;5112627;28;20206;-78
2022/07/19 00:40:09;;;;;;;4.00;1.70;;;24.10;51.00;;;-142.21;56.87;112049.66;5111827;28;20206;-78
2022/07/19 00:42:38;;;;;;;2.43;1.93;;;24.00;50.90;;;-142.21;56.80;112049.66;5095384;28;20189;-78
2022/07/19 00:45:06;;;;;;;2.93;1.90;;;24.00;50.90;;;-142.21;57.40;112049.66;5115492;28;20558;-77
2022/07/19 00:47:35;;;;;;;1.77;1.60;;;24.00;51.10;;;-142.21;57.79;112049.66;5115928;28;20211;-77
2022/07/19 00:50:03;;;;;;;4.57;2.00;;;23.90;51.30;;;-142.21;57.10;112049.66;5115680;28;20258;-77
2022/07/19 00:52:33;;;;;;;2.43;1.93;;;23.90;51.10;;;-142.21;56.98;112049.66;5116579;28;20624;-77
2022/07/19 00:55:01;;;;;;;2.80;1.90;;;23.80;50.90;;;-142.21;57.49;112049.66;5115676;28;20188;-79
2022/07/19 00:57:32;;;;;;;2.97;2.00;;;23.80;51.10;;;-142.21;58.14;112049.66;5116422;28;20287;-77
2022/07/19 01:00:00;;;;;;;5.40;2.10;;;23.80;51.30;;;-142.21;58.30;112049.66;5115535;28;20278;-78
2022/07/19 01:02:30;;;;;;;4.20;2.03;;;23.80;51.40;;;-142.21;59.15;112049.66;5115793;28;20329;-78
2022/07/19 01:05:00;;;;;;;2.20;1.80;;;23.70;51.60;;;-142.21;59.33;112049.66;5116271;28;20184;-78
2022/07/19 01:07:28;;;;;;;6.47;2.33;;;23.70;51.60;;;-142.21;59.74;112049.66;5116299;28;20203;-78
2022/07/19 01:09:55;;;;;;;2.50;2.03;;;23.70;51.80;;;-142.21;60.30;112049.66;5115385;28;20322;-79
2022/07/19 01:12:23;;;;;;;4.03;2.00;;;23.60;52.60;;;-142.21;60.29;112049.66;5115382;28;20204;-78
2022/07/19 01:14:50;;;;;;;5.97;2.10;;;23.60;52.60;;;-142.21;60.73;112049.66;5097886;28;20297;-77
2022/07/19 01:17:21;;;;;;;2.33;2.13;;;23.50;52.00;;;-142.21;61.16;112049.66;5114960;28;20293;-77
2022/07/19 01:19:48;;;;;;;5.13;2.80;;;23.50;52.20;;;-142.21;61.05;112049.66;5115581;28;20295;-78
2022/07/19 01:22:17;;;;;;;3.77;2.43;;;23.40;52.10;;;-142.21;60.85;112049.66;5115171;28;20262;-78
2022/07/19 01:24:44;;;;;;;4.93;2.03;;;23.40;52.20;;;-142.21;61.26;112049.66;5115459;28;20210;-77
2022/07/19 01:27:11;;;;;;;4.73;2.10;;;23.30;52.40;;;-142.21;61.58;112049.66;5114877;28;20252;-77
2022/07/19 01:29:39;;;;;;;2.77;2.20;;;23.30;52.40;;;-142.21;62.37;112049.66;5094857;28;20197;-77
2022/07/19 01:32:07;;;;;;;3.13;2.40;;;23.30;52.70;;;-142.21;62.23;112049.66;5094620;28;20220;-78
2022/07/19 01:34:34;;;;;;;4.37;2.80;;;23.30;52.80;;;-142.21;63.12;112049.66;5059668;28;20291;-77
2022/07/19 01:37:01;;;;;;;3.00;2.70;;;23.30;52.90;;;-142.21;63.19;112049.66;5094490;28;20299;-78
2022/07/19 01:39:30;;;;;;;4.93;2.20;;;23.20;53.00;;;-142.21;63.87;112049.66;5077064;28;20295;-78
2022/07/19 01:41:58;;;;;;;3.73;2.70;;;23.20;53.10;;;-142.21;64.31;112049.66;5095022;28;20204;-77
2022/07/19 01:44:25;;;;;;;3.63;2.77;;;23.10;53.80;;;-142.21;64.31;112049.66;5094437;28;20200;-78
2022/07/19 01:46:52;;;;;;;4.30;2.80;;;23.10;53.20;;;-142.21;64.60;112049.66;5094979;28;20612;-78
2022/07/19 01:49:19;;;;;;;4.53;2.50;;;23.10;53.30;;;-142.21;65.54;112049.66;5094439;28;20279;-79
2022/07/19 01:51:46;;;;;;;3.47;2.30;;;23.00;53.40;;;-142.21;65.63;112049.66;5094972;28;20225;-77
2022/07/19 01:54:13;;;;;;;3.07;2.70;;;23.00;53.60;;;-142.21;66.14;112049.66;5093954;28;20291;-78
2022/07/19 01:56:44;;;;;;;4.43;2.50;;;23.00;53.50;;;-142.21;66.93;112049.66;5094829;28;20214;-78
2022/07/19 01:59:11;;;;;;;4.10;2.90;;;23.00;53.90;;;-142.21;66.62;112049.66;5094221;28;20204;-78
2022/07/19 02:01:39;;;;;;;3.63;2.70;;;22.90;53.80;;;-142.21;66.16;112049.66;5094458;28;20203;-78
2022/07/19 02:04:06;;;;;;;4.83;2.60;;;22.90;53.70;;;-142.21;65.77;112049.66;5075223;28;20240;-77
2022/07/19 02:06:33;;;;;;;3.07;2.40;;;22.80;53.50;;;-142.21;65.42;112049.66;5094781;28;20668;-78
2022/07/19 02:09:00;;;;;;;6.93;2.60;;;22.80;53.50;;;-142.21;64.88;112049.66;5094183;28;20208;-77
2022/07/19 02:11:37;;;;;;;4.93;2.90;;;22.80;53.90;;;-142.21;65.17;112049.66;5093940;28;20255;-78
2022/07/19 02:14:07;;;;;;;2.40;2.20;;;22.80;53.50;;;-142.21;65.53;112049.66;5093596;28;20187;-78
2022/07/19 02:16:35;;;;;;;3.33;2.67;;;22.80;53.70;;;-142.21;65.13;112049.66;5094094;28;20204;-78
2022/07/19 02:19:03;;;;;;;2.83;2.53;;;22.80;54.20;;;-142.21;65.84;112049.66;5075406;28;20696;-78
2022/07/19 02:21:30;;;;;;;2.60;2.30;;;22.80;53.70;;;-142.21;66.38;112049.66;5094006;28;20287;-78
2022/07/19 02:23:57;;;;;;;5.33;3.13;;;22.70;54.30;;;-142.21;65.89;112049.66;5094150;28;20291;-78
2022/07/19 02:26:25;;;;;;;8.90;2.57;;;22.80;53.90;;;-142.21;66.17;112049.66;5093585;28;20204;-79
2022/07/19 02:28:52;;;;;;;3.70;2.43;;;22.70;53.90;;;-142.21;66.28;112049.66;5093870;28;20204;-78
2022/07/19 02:31:21;;;;;;;4.10;2.37;;;22.70;53.90;;;-142.21;66.33;112049.66;5093356;28;20231;-77
2022/07/19 02:33:48;;;;;;;3.77;2.40;;;22.70;54.10;;;-142.21;66.65;112049.66;5093592;28;20209;-78
2022/07/19 02:36:17;;;;;;;4.10;2.40;;;22.70;54.00;;;-142.21;67.16;112049.66;5075209;28;20211;-78
2022/07/19 02:38:44;;;;;;;2.63;2.40;;;22.60;54.20;;;-142.21;67.22;112049.66;5094239;28;20295;-78
2022/07/19 02:41:13;;;;;;;2.60;2.30;;;22.60;54.10;;;-142.21;66.77;112049.66;5113266;28;20208;-78
2022/07/19 02:43:41;;;;;;;4.73;2.47;;;22.60;54.00;;;-142.21;66.50;112049.66;5061726;28;20671;-78
2022/07/19 02:46:08;;;;;;;4.87;2.80;;;22.50;53.90;;;-142.21;66.49;112049.66;5095478;28;20203;-78
2022/07/19 02:48:37;;;;;;;3.13;2.33;;;22.50;53.90;;;-142.21;66.38;112049.66;5113667;28;20208;-77
2022/07/19 02:51:05;;;;;;;3.70;2.20;;;22.50;53.90;;;-142.21;66.53;112049.66;5113360;28;20316;-78
2022/07/19 02:53:32;;;;;;;3.70;2.50;;;22.50;53.90;;;-142.21;66.41;112049.66;5113722;28;20208;-78
2022/07/19 02:55:59;;;;;;;2.97;2.53;;;22.50;54.50;;;-142.21;67.11;112049.66;5113685;28;20680;-79
2022/07/19 02:58:26;;;;;;;3.00;2.67;;;22.50;54.10;;;-142.21;66.31;112049.66;5095068;28;20208;-79
2022/07/19 03:00:53;;;;;;;3.83;2.17;;;22.40;53.90;;;-142.21;65.99;112049.66;5114701;28;20196;-78
2022/07/19 03:06:08;;;;;;;2.13;2.00;;;22.30;54.00;;;-142.21;65.72;112049.66;5092626;28;20238;-78
2022/07/19 03:08:35;;;;;;;3.20;2.60;;;22.30;53.80;;;-142.21;65.97;112049.66;5093333;28;20188;-79
2022/07/19 03:11:03;;;;;;;4.37;2.30;;;22.30;53.90;;;-142.21;66.77;112049.66;5092834;28;20236;-79
2022/07/19 03:13:30;;;;;;;3.07;2.60;;;22.30;54.10;;;-142.21;65.58;112049.66;5093091;28;20206;-79
2022/07/19 03:15:57;;;;;;;2.93;2.27;;;22.20;53.80;;;-142.21;65.62;112049.66;5093313;28;20200;-79
2022/07/19 03:18:24;;;;;;;3.80;2.63;;;22.20;53.80;;;-142.21;66.99;112049.66;5074525;28;20649;-79
2022/07/19 03:20:51;;;;;;;3.47;2.50;;;22.20;54.00;;;-142.21;67.48;112049.66;5107816;28;20195;-78
2022/07/19 03:23:20;;;;;;;3.13;2.50;;;22.20;54.10;;;-142.21;67.47;112049.66;5112578;28;20294;-79
2022/07/19 03:25:47;;;;;;;2.70;2.30;;;22.20;54.20;;;-142.21;68.05;112049.66;5113360;28;20192;-78
2022/07/19 03:28:14;;;;;;;3.07;2.37;;;22.20;54.30;;;-142.21;68.26;112049.66;5112798;28;20208;-77
2022/07/19 03:30:42;;;;;;;3.27;2.70;;;22.10;54.50;;;-142.21;68.53;112049.66;5113234;28;20200;-78
2022/07/19 03:33:10;;;;;;;5.27;2.87;;;22.10;54.40;;;-142.21;68.48;112049.66;5111874;28;20203;-79
2022/07/19 03:35:37;;;;;;;2.73;2.47;;;22.10;54.40;;;-142.21;68.32;112049.66;5112957;28;20239;-78
2022/07/19 03:38:05;;;;;;;2.97;2.37;;;22.00;54.40;;;-142.21;68.01;112049.66;5113005;28;20569;-78
2022/07/19 03:40:33;;;;;;;2.53;2.27;;;22.00;54.30;;;-142.21;68.44;112049.66;5112655;28;20253;-78
2022/07/19 03:43:01;;;;;;;3.03;2.47;;;22.00;54.40;;;-142.21;68.84;112049.66;5112746;28;20210;-78
2022/07/19 03:45:28;;;;;;;4.23;2.60;;;22.00;54.60;;;-142.21;68.65;112049.66;5112496;28;20698;-78
2022/07/19 03:47:55;;;;;;;3.33;2.40;;;21.90;54.60;;;-142.21;67.76;112049.66;5112844;28;20243;-77
2022/07/19 03:50:23;;;;;;;3.00;2.50;;;21.90;54.40;;;-142.21;67.93;112049.66;5112148;28;20311;-78
2022/07/19 03:52:53;;;;;;;5.10;2.53;;;21.90;54.40;;;-142.21;67.31;112049.66;5094774;28;20306;-78
2022/07/19 03:55:20;;;;;;;5.77;2.70;;;21.90;54.20;;;-142.21;67.38;112049.66;5111971;28;20636;-78
2022/07/19 03:57:49;;;;;;;3.40;2.43;;;21.90;54.20;;;-142.21;67.47;112049.66;5113018;28;20203;-78
2022/07/19 04:00:16;;;;;;;2.57;2.30;;;21.90;54.40;;;-142.21;66.93;112049.66;5094078;28;20290;-78
2022/07/19 04:02:43;;;;;;;3.80;2.47;;;21.90;54.20;;;-142.21;67.32;112049.66;5112791;28;20571;-78
2022/07/19 04:05:11;;;;;;;3.47;2.30;;;21.90;54.20;;;-142.21;67.43;112049.66;5111994;28;20218;-80
2022/07/19 04:07:39;;;;;;;4.20;2.37;;;21.90;54.20;;;-142.21;66.98;112049.66;5112914;28;20289;-78
2022/07/19 04:10:07;;;;;;;3.97;2.50;;;21.90;54.10;;;-142.21;65.18;112049.66;5112553;28;20231;-78
2022/07/19 04:12:35;;;;;;;6.97;2.77;;;21.90;53.70;;;-142.21;64.67;112049.66;5112426;28;20638;-77
2022/07/19 04:15:05;;;;;;;4.83;2.73;;;21.90;53.60;;;-142.21;65.56;112049.66;5112337;28;20239;-78
2022/07/19 04:17:32;;;;;;;6.37;2.43;;;22.00;53.90;;;-142.21;66.29;112049.66;5112225;28;20207;-78
2022/07/19 04:19:59;;;;;;;5.80;2.70;;;22.00;53.90;;;-142.21;66.89;112049.66;5116489;28;20203;-78
2022/07/19 04:22:26;;;;;;;4.57;3.00;;;22.00;54.00;;;-142.21;67.73;112049.66;5116405;28;20295;-77
2022/07/19 04:24:53;;;;;;;3.73;2.57;;;22.10;54.30;;;-142.21;70.31;112049.66;5116969;28;20256;-78
2022/07/19 04:27:21;;;;;;;4.57;2.43;;;22.10;55.00;;;-142.21;70.02;112049.66;5115977;28;20206;-78
2022/07/19 04:29:48;;;;;;;3.47;2.50;;;22.10;55.00;;;-142.21;70.85;112049.66;5116448;28;20678;-78
2022/07/19 04:32:17;;;;;;;3.80;2.30;;;22.10;55.20;;;-142.21;72.36;112049.66;5116311;28;20384;-78
2022/07/19 04:34:44;;;;;;;3.97;3.10;;;22.10;55.70;;;-142.21;72.30;112049.66;5116743;28;20207;-78
2022/07/19 04:37:11;;;;;;;4.10;2.53;;;22.10;55.70;;;-142.21;73.10;112049.66;5098094;28;20298;-76
2022/07/19 04:39:38;;;;;;;8.90;3.40;;;22.10;55.80;;;-142.21;73.66;112049.66;5116530;28;20286;-78
2022/07/19 04:42:06;;;;;;;6.47;3.27;;;22.10;55.90;;;-142.21;73.35;112049.66;5116392;28;20759;-78
2022/07/19 04:44:33;;;;;;;8.77;3.63;;;22.20;56.00;;;-142.21;73.97;112049.66;5115845;28;20208;-78
2022/07/19 04:47:00;;;;;;;6.63;3.50;;;22.20;56.10;;;-142.21;74.06;112049.66;5116175;28;20290;-78
2022/07/19 04:49:29;;;;;;;6.53;3.50;;;22.20;56.20;;;-142.21;73.81;112049.66;5115430;28;20707;-77
2022/07/19 04:51:58;;;;;;;8.33;3.43;;;22.20;56.30;;;-142.21;73.15;112049.66;5095572;28;20228;-78
2022/07/19 04:54:26;;;;;;;6.67;3.37;;;22.20;55.90;;;-142.21;73.06;112049.66;5095313;28;20240;-78
2022/07/19 04:56:53;;;;;;;7.47;3.30;;;22.30;56.00;;;-142.21;73.36;112049.66;5095998;28;20200;-78
2022/07/19 04:59:20;;;;;;;4.93;3.23;;;22.30;56.20;;;-142.21;72.71;112049.66;5102179;28;20644;-78
2022/07/19 05:01:48;;;;;;;3.17;2.87;;;22.30;55.60;;;-142.21;71.10;112049.66;5116283;28;20234;-78
2022/07/19 05:04:15;;;;;;;5.87;2.57;;;22.50;55.40;;;-142.21;69.98;112049.66;5115721;28;20298;-78
2022/07/19 05:06:44;;;;;;;7.23;2.90;;;22.50;55.30;;;-142.21;68.39;112049.66;5115827;28;20215;-78
2022/07/19 05:09:11;;;;;;;4.33;2.63;;;22.60;54.70;;;-142.21;67.02;112049.66;5115831;28;20242;-79
2022/07/19 05:11:38;;;;;;;3.90;2.70;;;22.70;54.40;;;-142.21;65.35;112049.66;5115560;28;20200;-77
2022/07/19 05:14:06;;;;;;;4.07;2.23;;;22.80;53.90;;;-142.21;64.86;112049.66;5115386;28;20298;-76
2022/07/19 05:16:33;;;;;;;3.23;2.30;;;22.90;53.80;;;-142.21;63.53;112049.66;5115503;28;20290;-77
2022/07/19 05:19:00;;;;;;;2.90;2.60;;;23.00;53.50;;;-142.21;62.38;112049.66;5115582;28;20628;-77
2022/07/19 05:21:27;;;;;;;3.53;2.23;;;23.10;53.10;;;-142.21;61.06;112049.66;5115309;28;20196;-77
2022/07/19 05:23:56;;;;;;;2.43;2.23;;;23.20;52.80;;;-142.21;59.69;112049.66;5115850;28;20231;-77
2022/07/19 05:26:23;;;;;;;2.83;2.40;;;23.40;52.50;;;-142.21;59.87;112049.66;5114958;28;20199;-79
2022/07/19 05:28:50;;;;;;;3.50;2.03;;;23.50;53.00;;;-142.21;58.96;112049.66;5114620;28;20196;-78
2022/07/19 05:31:17;;;;;;;2.50;2.17;;;23.60;52.40;;;-142.21;57.94;112049.66;5114900;28;20242;-77
2022/07/19 05:33:44;;;;;;;2.50;2.30;;;23.70;52.10;;;-142.21;56.98;112049.66;5115731;28;20230;-77
2022/07/19 05:36:12;;;;;;;3.33;2.53;;;23.80;51.80;;;-142.21;55.58;112049.66;5115555;28;20282;-76
2022/07/19 05:38:39;;;;;;;2.67;2.40;;;24.00;51.40;;;-142.21;55.78;112049.66;5114959;28;20253;-77
2022/07/19 05:41:09;;;;;;;3.93;2.70;;;24.10;51.40;;;-142.21;55.02;112049.66;5115390;28;20282;-79
2022/07/19 05:43:38;;;;;;;2.97;2.20;;;24.20;51.10;;;-142.21;54.13;112049.66;5114458;28;20195;-76
2022/07/19 05:46:09;;;;;;;3.47;2.43;;;24.30;50.90;;;-142.21;54.14;112049.66;5115297;28;20296;-76
2022/07/19 05:48:36;;;;;;;3.63;2.80;;;24.40;50.90;;;-142.21;53.17;112049.66;5114822;28;20196;-76
2022/07/19 05:51:03;;;;;;;4.27;2.20;;;24.40;50.50;;;-142.21;53.45;112049.66;5115017;28;20199;-75
2022/07/19 05:53:30;;;;;;;4.47;2.50;;;24.60;50.50;;;-142.21;53.18;112049.66;5114160;28;20215;-75
2022/07/19 05:55:58;;;;;;;3.70;2.93;;;24.60;50.30;;;-142.21;52.76;112049.66;5115373;28;20199;-75
2022/07/19 05:58:26;;;;;;;4.83;2.60;;;24.70;50.70;;;-142.21;52.03;112049.66;5113930;28;20671;-75
2022/07/19 06:03:39;;;;;;;2.63;2.43;;;24.90;49.80;;;-142.21;52.45;112049.66;5098667;28;20240;-75
2022/07/19 06:06:06;;;;;;;5.47;2.53;;;25.00;49.90;;;-142.21;52.47;112049.66;5113682;28;20227;-76
2022/07/19 06:08:34;;;;;;;3.23;2.60;;;25.10;50.10;;;-142.21;52.65;112049.66;5107339;28;20203;-74
2022/07/19 06:11:01;;;;;;;2.90;2.70;;;25.20;50.20;;;-142.21;52.12;112049.66;5114154;28;20231;-74
2022/07/19 06:13:29;;;;;;;3.50;2.50;;;25.30;49.80;;;-142.21;52.49;112049.66;5113823;28;20251;-76
2022/07/19 06:15:57;;;;;;;3.03;2.23;;;25.40;49.90;;;-142.21;52.57;112049.66;5114594;28;20242;-76
2022/07/19 06:18:24;;;;;;;4.90;2.83;;;25.50;49.80;;;-142.21;53.05;112049.66;5113936;28;20210;-75
2022/07/19 06:20:51;;;;;;;2.90;2.20;;;25.60;49.90;;;-142.21;52.41;112049.66;5113649;28;20283;-74
2022/07/19 06:23:18;;;;;;;5.33;2.70;;;25.70;49.70;;;-142.21;51.74;112049.66;5113048;28;20656;-74
2022/07/19 06:25:45;;;;;;;3.10;2.70;;;25.80;49.30;;;-142.21;51.53;112049.66;5113907;28;20282;-76
2022/07/19 06:28:13;;;;;;;3.43;2.50;;;25.90;49.40;;;-142.21;50.99;112049.66;5113429;28;20195;-74
2022/07/19 06:30:41;;;;;;;2.90;2.57;;;26.00;49.90;;;-142.21;50.10;112049.66;5113317;28;20195;-69
2022/07/19 06:33:08;;;;;;;2.60;2.23;;;26.10;48.90;;;-142.21;50.88;112049.66;5114000;28;20307;-76
2022/07/19 06:35:35;;;;;;;4.70;2.70;;;26.20;48.90;;;-142.21;50.75;112049.66;5113013;28;20287;-78
2022/07/19 06:38:02;;;;;;;3.93;2.40;;;26.30;48.80;;;-142.21;49.88;112049.66;5114050;28;20302;-77
2022/07/19 06:40:30;;;;;;;2.30;2.10;;;26.40;48.70;;;-142.21;50.57;112049.66;5094954;28;20204;-78
2022/07/19 06:42:57;;;;;;;2.90;2.40;;;26.50;48.80;;;-142.21;49.98;112049.66;5113692;28;20286;-77
2022/07/19 06:45:25;;;;;;;3.00;2.57;;;26.50;48.60;;;-142.21;50.44;112049.66;5113743;28;20240;-77
2022/07/19 06:47:53;;;;;;;2.40;2.20;;;26.70;48.50;;;-142.21;50.00;112049.66;5114338;28;20600;-76
2022/07/19 06:50:22;;;;;;;3.27;2.33;;;26.80;48.60;;;-142.21;50.05;112049.66;5113304;28;20314;-78
2022/07/19 06:52:49;;;;;;;3.83;2.67;;;26.90;48.50;;;-142.21;48.92;112049.66;5114055;28;20219;-76
2022/07/19 06:55:17;;;;;;;5.13;2.40;;;27.00;48.00;;;-142.21;48.91;112049.66;5113898;28;20207;-78
2022/07/19 06:57:44;;;;;;;3.03;2.33;;;27.10;47.90;;;-142.21;48.95;112049.66;5114053;28;20250;-77
2022/07/19 07:00:14;;;;;;;5.93;2.30;;;27.20;48.00;;;-142.21;48.05;112049.66;5114356;28;20294;-77
2022/07/19 07:02:42;;;;;;;3.03;2.00;;;27.30;47.70;;;-142.21;48.32;112049.66;5113392;28;20290;-78
2022/07/19 07:05:12;;;;;;;3.23;2.67;;;27.40;47.80;;;-142.21;46.93;112049.66;5114063;28;20204;-77
2022/07/19 07:07:41;;;;;;;4.00;2.57;;;27.50;47.30;;;-142.21;46.64;112049.66;5113430;28;20232;-78
2022/07/19 07:10:10;;;;;;;5.03;2.57;;;27.60;47.10;;;-142.21;46.44;112049.66;5112355;28;20595;-77
2022/07/19 07:12:37;;;;;;;2.83;2.60;;;27.80;46.90;;;-142.21;46.95;112049.66;5095166;28;20292;-77
2022/07/19 07:15:09;;;;;;;4.90;2.60;;;27.90;47.10;;;-142.21;46.66;112049.66;5113483;28;20292;-78
2022/07/19 07:17:37;;;;;;;2.70;2.30;;;28.00;46.90;;;-142.21;45.59;112049.66;5095435;28;20231;-77
2022/07/19 07:20:07;;;;;;;7.03;2.60;;;28.10;46.40;;;-142.21;45.69;112049.66;5113050;28;20209;-77
2022/07/19 07:22:39;;;;;;;5.27;2.30;;;28.20;46.50;;;-142.21;44.86;112049.66;5112910;28;20218;-76
2022/07/19 07:25:10;;;;;;;2.53;2.10;;;28.30;46.20;;;-142.21;45.73;112049.66;5112100;28;20190;-76
2022/07/19 07:27:38;;;;;;;5.57;2.73;;;28.50;46.20;;;-142.21;45.15;112049.66;5094514;28;20224;-75
2022/07/19 07:30:08;;;;;;;3.23;2.47;;;28.60;46.30;;;-142.21;43.90;112049.66;5095645;28;20283;-76
2022/07/19 07:32:35;;;;;;;3.47;2.33;;;28.70;45.70;;;-142.21;44.12;112049.66;5112868;28;20229;-76
2022/07/19 07:35:02;;;;;;;3.67;2.80;;;28.80;45.70;;;-142.21;43.00;112049.66;5113472;28;20210;-77
2022/07/19 07:37:30;;;;;;;5.60;2.23;;;28.90;45.30;;;-142.21;41.43;112049.66;5094918;28;20205;-77
2022/07/19 07:39:59;;;;;;;5.00;2.73;;;29.00;44.20;;;-142.21;41.80;112049.66;5112881;28;20247;-77
2022/07/19 07:42:26;;;;;;;2.83;2.43;;;29.20;44.30;;;-142.21;42.30;112049.66;5112932;28;20542;-77
2022/07/19 07:44:53;;;;;;;5.00;2.30;;;29.30;44.60;;;-142.21;41.80;112049.66;5113296;28;20220;-76
2022/07/19 07:47:21;;;;;;;2.57;2.17;;;29.40;44.20;;;-142.21;41.69;112049.66;5113094;28;20281;-76
2022/07/19 07:49:50;;;;;;;3.23;2.20;;;29.50;44.10;;;-142.21;41.94;112049.66;5113140;28;20313;-77
2022/07/19 07:52:18;;;;;;;3.47;2.30;;;29.70;44.30;;;-142.21;41.49;112049.66;5112756;28;20232;-78
2022/07/19 07:54:47;;;;;;;2.80;2.00;;;29.80;44.00;;;-142.21;41.22;112049.66;5112205;28;20256;-77
2022/07/19 07:57:16;;;;;;;5.57;2.20;;;29.90;43.70;;;-142.21;40.14;112049.66;5113336;28;20235;-74
2022/07/19 07:59:43;;;;;;;2.40;2.20;;;30.10;43.20;;;-142.21;41.25;112049.66;5112658;28;20217;-77
2022/07/19 08:02:10;;;;;;;2.87;2.20;;;30.20;43.50;;;-142.21;39.96;112049.66;5112720;28;20203;-74
2022/07/19 08:04:37;;;;;;;5.40;2.77;;;30.30;42.90;;;-142.21;39.85;112049.66;5111730;28;20291;-75
2022/07/19 08:07:05;;;;;;;3.03;2.37;;;30.40;42.80;;;-142.21;39.64;112049.66;5094333;28;20623;-76
2022/07/19 08:09:32;;;;;;;3.17;2.60;;;30.60;42.80;;;-142.21;39.06;112049.66;5111220;28;20223;-77
2022/07/19 08:11:59;;;;;;;2.47;2.20;;;30.70;42.30;;;-142.21;37.74;112049.66;5112176;28;20274;-75
2022/07/19 08:14:28;;;;;;;2.60;2.00;;;30.80;41.30;;;-142.21;38.53;112049.66;5111594;28;20294;-75
2022/07/19 08:16:55;;;;;;;2.40;2.20;;;30.90;41.70;;;-142.21;37.71;112049.66;5112633;28;20207;-76
2022/07/19 08:19:23;;;;;;;3.83;2.53;;;31.00;41.10;;;-142.21;38.39;112049.66;5112001;28;20241;-76
2022/07/19 08:21:50;;;;;;;2.70;2.07;;;31.10;41.50;;;-142.21;37.31;112049.66;5112284;28;20235;-75
2022/07/19 08:24:17;;;;;;;6.17;2.40;;;31.20;40.90;;;-142.21;37.56;112049.66;5111879;28;20287;-77
2022/07/19 08:26:44;;;;;;;4.83;2.33;;;31.30;40.90;;;-142.21;36.50;112049.66;5075744;28;20208;-77
2022/07/19 08:29:11;;;;;;;2.27;2.07;;;31.40;40.10;;;-142.21;35.82;112049.66;5112074;28;20207;-78
2022/07/19 08:31:40;;;;;;;4.70;2.30;;;31.50;39.60;;;-142.21;36.35;112049.66;5111319;28;20668;-76
2022/07/19 08:34:07;;;;;;;3.03;2.50;;;31.60;40.00;;;-142.21;37.21;112049.66;5112369;28;20318;-75
2022/07/19 08:36:34;;;;;;;3.53;2.50;;;31.70;40.20;;;-142.21;36.32;112049.66;5111236;28;20213;-76
2022/07/19 08:39:01;;;;;;;2.27;2.07;;;31.90;39.90;;;-142.21;36.54;112049.66;5111802;28;20196;-76
2022/07/19 08:41:28;;;;;;;3.33;2.07;;;32.00;39.90;;;-142.21;36.10;112049.66;5111664;28;20246;-75
2022/07/19 08:43:57;;;;;;;3.60;2.50;;;32.10;39.60;;;-142.21;35.23;112049.66;5112228;28;20282;-76
2022/07/19 08:46:25;;;;;;;4.17;2.40;;;32.20;39.10;;;-142.21;35.23;112049.66;5093632;28;20652;-75
2022/07/19 08:48:55;;;;;;;2.93;2.30;;;32.30;38.90;;;-142.21;34.81;112049.66;5112100;28;20314;-75
2022/07/19 08:51:24;;;;;;;2.83;2.53;;;32.40;38.50;;;-142.21;36.09;112049.66;5111757;28;20235;-75
2022/07/19 08:53:51;;;;;;;2.57;2.10;;;32.60;39.20;;;-142.21;34.32;112049.66;5111101;28;20338;-76
2022/07/19 08:59:05;;;;;;;2.97;2.27;;;32.70;37.60;;;-142.21;34.61;112049.66;5111929;28;20234;-74
2022/07/19 09:01:32;;;;;;;2.57;2.23;;;32.90;38.20;;;-142.21;33.05;112049.66;5111326;28;20291;-76
2022/07/19 09:04:16;;;;;;;2.27;2.00;;;33.00;37.10;;;-142.21;33.26;112049.66;5111862;28;20748;-75
2022/07/19 09:06:48;;;;;;;4.17;2.03;;;33.10;36.30;;;-142.21;33.02;112049.66;5114825;28;20281;-75
2022/07/19 09:09:18;;;;;;;5.53;2.77;;;33.20;36.80;;;-142.21;32.19;112049.66;5115329;28;20621;-76
2022/07/19 09:11:51;;;;;;;2.33;2.13;;;33.30;36.10;;;-142.21;32.27;112049.66;5114883;28;20951;-75
2022/07/19 09:14:21;;;;;;;2.67;2.30;;;33.40;36.00;;;-142.21;31.52;112049.66;5115595;28;20570;-76
2022/07/19 09:17:12;;;;;;;5.47;2.47;;;33.50;35.40;;;-142.21;31.61;112049.66;5114542;28;20343;-74
2022/07/19 09:19:43;;;;;;;2.40;2.20;;;33.60;34.70;;;-142.21;31.73;112049.66;5110123;28;20258;-76
2022/07/19 09:22:14;;;;;;;2.60;2.20;;;33.70;35.20;;;-142.21;32.43;112049.66;5115240;28;20189;-75
2022/07/19 09:24:44;;;;;;;2.80;2.07;;;33.80;35.80;;;-142.21;31.15;112049.66;5114169;28;20204;-75
2022/07/19 09:27:14;;;;;;;2.63;2.40;;;33.90;35.00;;;-142.21;31.97;112049.66;5115219;28;20285;-74
2022/07/19 09:29:44;;;;;;;3.10;2.00;;;34.00;35.50;;;-142.21;30.94;112049.66;5114819;28;20248;-77
2022/07/19 09:32:15;;;;;;;4.50;2.30;;;34.10;34.70;;;-142.21;31.28;112049.66;5115271;28;20238;-75
2022/07/19 09:34:51;;;;;;;3.27;2.20;;;34.20;35.00;;;-142.21;30.02;112049.66;5114240;28;20211;-76
2022/07/19 09:37:22;;;;;;;2.87;2.20;;;34.20;34.10;;;-142.21;31.46;112049.66;5114949;28;20195;-75
2022/07/19 09:39:52;;;;;;;3.03;2.17;;;34.40;34.80;;;-142.21;30.44;112049.66;5114065;28;20282;-76
2022/07/19 09:42:23;;;;;;;3.37;2.10;;;34.40;34.00;;;-142.21;31.23;112049.66;5115163;28;20273;-75
2022/07/19 09:45:00;;;;;;;3.17;2.00;;;34.50;34.60;;;-142.21;30.38;112049.66;5114334;28;20184;-75
2022/07/19 09:47:36;;;;;;;2.40;2.20;;;34.60;33.50;;;-142.21;30.02;112049.66;5115068;28;20222;-75
2022/07/19 09:50:08;;;;;;;2.23;2.03;;;34.70;33.00;;;-142.21;30.74;112049.66;5114534;28;20226;-76
2022/07/19 09:52:36;;;;;;;2.67;1.93;;;34.70;33.90;;;-142.21;30.58;112049.66;5114165;28;20227;-76
2022/07/19 09:55:09;;;;;;;2.23;1.97;;;34.80;33.80;;;-142.21;29.30;112049.66;5114389;28;20624;-76
2022/07/19 09:57:40;;;;;;;2.23;2.03;;;34.90;33.00;;;-142.21;29.46;112049.66;5114237;28;20222;-74
2022/07/19 10:00:10;;;;;;;5.10;2.13;;;35.00;32.70;;;-142.21;27.30;112049.66;5114586;28;20187;-76
2022/07/19 10:02:40;;;;;;;2.37;2.17;;;35.10;30.90;;;-142.21;29.12;112049.66;5114194;28;20208;-73
2022/07/19 10:05:11;;;;;;;2.70;2.07;;;35.10;32.10;;;-142.21;28.07;112049.66;5113823;28;20629;-77
2022/07/19 10:07:40;;;;;;;2.03;1.60;;;35.20;31.10;;;-142.21;28.29;112049.66;5113754;28;20183;-75
2022/07/19 10:10:11;;;;;;;2.83;1.93;;;35.20;31.20;;;-142.21;27.39;112049.66;5112977;28;20688;-74
2022/07/19 10:12:39;;;;;;;2.20;2.00;;;35.30;30.00;;;-142.21;26.97;112049.66;5113932;28;20272;-76